SWA2210 KLAS-KLAX
Flight info
| Callsign | SWA2210 |
|---|---|
| Flight time | 0h 39m |
| Altitude | 30000 |
| Route | RADYR2 BLAQQ DCT SHTNR ANJLL4 |
| Aircraft | B738/M-SADE2E3GIJ4RWZ/LB1D1 |
Departure
| Time | 2026-05-07 19:50 |
|---|---|
| Airport | Harry Reid International Airport (KLAS) |
Arrival
| Time | 2026-05-07 20:29 |
|---|---|
| Airport | Los Angeles International Airport (KLAX) |
| Time | Latitude | Longitude | Altitude | Speed | Heading |
|---|---|---|---|---|---|
| 2026-05-07 19:36 | 36.08050 | -115.14565 | 2096 ft | 0 kts | 270° |
| 2026-05-07 19:41 | 36.08050 | -115.14545 | 2096 ft | 4 kts | 270° |
| 2026-05-07 19:41 | 36.08049 | -115.14512 | 2096 ft | 4 kts | 270° |
| 2026-05-07 19:42 | 36.08049 | -115.14485 | 2096 ft | 0 kts | 270° |
| 2026-05-07 19:44 | 36.08044 | -115.14489 | 2096 ft | 2 kts | 210° |
| 2026-05-07 19:44 | 36.08013 | -115.14487 | 2096 ft | 7 kts | 176° |
| 2026-05-07 19:44 | 36.07952 | -115.14485 | 2095 ft | 9 kts | 179° |
| 2026-05-07 19:45 | 36.07900 | -115.14484 | 2095 ft | 7 kts | 179° |
| 2026-05-07 19:45 | 36.07848 | -115.14473 | 2095 ft | 8 kts | 145° |
| 2026-05-07 19:45 | 36.07832 | -115.14409 | 2095 ft | 8 kts | 97° |
| 2026-05-07 19:45 | 36.07828 | -115.14337 | 2095 ft | 9 kts | 92° |
| 2026-05-07 19:46 | 36.07827 | -115.14233 | 2094 ft | 16 kts | 90° |
| 2026-05-07 19:46 | 36.07828 | -115.14085 | 2093 ft | 18 kts | 90° |
| 2026-05-07 19:46 | 36.07827 | -115.13935 | 2092 ft | 17 kts | 90° |
| 2026-05-07 19:46 | 36.07828 | -115.13792 | 2092 ft | 17 kts | 90° |
| 2026-05-07 19:47 | 36.07828 | -115.13626 | 2091 ft | 22 kts | 90° |
| 2026-05-07 19:47 | 36.07828 | -115.13414 | 2089 ft | 27 kts | 90° |
| 2026-05-07 19:47 | 36.07828 | -115.13176 | 2084 ft | 28 kts | 90° |
| 2026-05-07 19:47 | 36.07829 | -115.12928 | 2074 ft | 29 kts | 90° |
| 2026-05-07 19:48 | 36.07828 | -115.12670 | 2063 ft | 30 kts | 90° |
| 2026-05-07 19:48 | 36.07829 | -115.12409 | 2056 ft | 30 kts | 90° |
| 2026-05-07 19:48 | 36.07794 | -115.12215 | 2050 ft | 20 kts | 128° |
| 2026-05-07 19:48 | 36.07698 | -115.12122 | 2048 ft | 15 kts | 174° |
| 2026-05-07 19:49 | 36.07644 | -115.12187 | 2048 ft | 17 kts | 265° |
| 2026-05-07 19:49 | 36.07642 | -115.12615 | 2063 ft | 83 kts | 270° |
| 2026-05-07 19:49 | 36.07641 | -115.13570 | 2090 ft | 141 kts | 270° |
| 2026-05-07 19:49 | 36.07642 | -115.14976 | 2155 ft | 184 kts | 271° |
| 2026-05-07 19:50 | 36.07647 | -115.16576 | 2885 ft | 186 kts | 271° |
| 2026-05-07 19:50 | 36.07656 | -115.18191 | 3558 ft | 191 kts | 270° |
| 2026-05-07 19:50 | 36.07648 | -115.19883 | 3931 ft | 206 kts | 269° |
| 2026-05-07 19:50 | 36.07530 | -115.21681 | 4368 ft | 215 kts | 259° |
| 2026-05-07 19:51 | 36.07205 | -115.23599 | 4513 ft | 237 kts | 257° |
| 2026-05-07 19:51 | 36.06473 | -115.25468 | 4729 ft | 253 kts | 227° |
| 2026-05-07 19:51 | 36.05005 | -115.26783 | 4992 ft | 270 kts | 201° |
| 2026-05-07 19:51 | 36.03242 | -115.27598 | 5512 ft | 277 kts | 200° |
| 2026-05-07 19:52 | 36.01414 | -115.28421 | 6186 ft | 281 kts | 201° |
| 2026-05-07 19:52 | 35.99573 | -115.29252 | 6876 ft | 283 kts | 200° |
| 2026-05-07 19:52 | 35.97658 | -115.29930 | 7524 ft | 288 kts | 193° |
| 2026-05-07 19:52 | 35.95684 | -115.30414 | 8170 ft | 293 kts | 192° |
| 2026-05-07 19:53 | 35.93663 | -115.30871 | 8873 ft | 297 kts | 192° |
| 2026-05-07 19:53 | 35.91613 | -115.31338 | 9563 ft | 302 kts | 192° |
| 2026-05-07 19:53 | 35.89527 | -115.31822 | 10234 ft | 308 kts | 192° |
| 2026-05-07 19:53 | 35.87349 | -115.32338 | 10441 ft | 331 kts | 192° |
| 2026-05-07 19:54 | 35.85020 | -115.32899 | 10663 ft | 351 kts | 192° |
| 2026-05-07 19:54 | 35.82632 | -115.33478 | 11239 ft | 356 kts | 191° |
| 2026-05-07 19:54 | 35.80190 | -115.34072 | 11954 ft | 358 kts | 191° |
| 2026-05-07 19:54 | 35.77730 | -115.34673 | 12617 ft | 363 kts | 191° |
| 2026-05-07 19:55 | 35.75236 | -115.35283 | 13278 ft | 367 kts | 190° |
| 2026-05-07 19:55 | 35.72708 | -115.35901 | 13972 ft | 371 kts | 190° |
| 2026-05-07 19:55 | 35.70158 | -115.36525 | 14601 ft | 375 kts | 190° |
| 2026-05-07 19:55 | 35.67582 | -115.37155 | 15245 ft | 380 kts | 190° |
| 2026-05-07 19:56 | 35.64978 | -115.37791 | 15893 ft | 384 kts | 190° |
| 2026-05-07 19:56 | 35.62340 | -115.38435 | 16561 ft | 388 kts | 190° |
| 2026-05-07 19:56 | 35.59694 | -115.38865 | 17172 ft | 391 kts | 179° |
| 2026-05-07 19:56 | 35.56959 | -115.38682 | 17823 ft | 394 kts | 174° |
| 2026-05-07 19:57 | 35.54208 | -115.38389 | 18441 ft | 399 kts | 174° |
| 2026-05-07 19:57 | 35.51428 | -115.38127 | 18982 ft | 403 kts | 175° |
| 2026-05-07 19:57 | 35.48602 | -115.37907 | 19545 ft | 407 kts | 175° |
| 2026-05-07 19:57 | 35.45750 | -115.37734 | 20114 ft | 412 kts | 179° |
| 2026-05-07 19:58 | 35.42964 | -115.38305 | 20602 ft | 418 kts | 200° |
| 2026-05-07 19:58 | 35.40332 | -115.39835 | 21212 ft | 419 kts | 208° |
| 2026-05-07 19:58 | 35.37753 | -115.41528 | 21719 ft | 424 kts | 209° |
| 2026-05-07 19:58 | 35.35140 | -115.43261 | 22187 ft | 429 kts | 208° |
| 2026-05-07 19:59 | 35.32489 | -115.45005 | 22710 ft | 433 kts | 208° |
| 2026-05-07 19:59 | 35.29822 | -115.46738 | 23256 ft | 436 kts | 208° |
| 2026-05-07 19:59 | 35.27122 | -115.48474 | 23743 ft | 439 kts | 208° |
| 2026-05-07 19:59 | 35.24401 | -115.50215 | 24160 ft | 442 kts | 208° |
| 2026-05-07 20:00 | 35.21665 | -115.51959 | 24588 ft | 445 kts | 208° |
| 2026-05-07 20:00 | 35.18908 | -115.53716 | 25004 ft | 448 kts | 208° |
| 2026-05-07 20:00 | 35.16131 | -115.55486 | 25404 ft | 451 kts | 208° |
| 2026-05-07 20:00 | 35.13375 | -115.57258 | 25802 ft | 454 kts | 210° |
| 2026-05-07 20:01 | 35.10859 | -115.59585 | 26148 ft | 455 kts | 227° |
| 2026-05-07 20:01 | 35.08694 | -115.62413 | 26585 ft | 457 kts | 229° |
| 2026-05-07 20:01 | 35.06526 | -115.65281 | 26947 ft | 459 kts | 229° |
| 2026-05-07 20:01 | 35.04344 | -115.68147 | 27337 ft | 462 kts | 228° |
| 2026-05-07 20:02 | 35.02137 | -115.71011 | 27727 ft | 464 kts | 228° |
| 2026-05-07 20:02 | 34.99907 | -115.73876 | 28203 ft | 464 kts | 228° |
| 2026-05-07 20:02 | 34.97708 | -115.76681 | 28731 ft | 462 kts | 227° |
| 2026-05-07 20:02 | 34.95489 | -115.79502 | 29285 ft | 460 kts | 227° |
| 2026-05-07 20:03 | 34.93269 | -115.82321 | 29794 ft | 460 kts | 227° |
| 2026-05-07 20:03 | 34.91041 | -115.85148 | 30021 ft | 465 kts | 227° |
| 2026-05-07 20:03 | 34.86547 | -115.90848 | 30004 ft | 464 kts | 227° |
| 2026-05-07 20:04 | 34.82111 | -115.96466 | 29998 ft | 459 kts | 227° |
| 2026-05-07 20:04 | 34.77705 | -116.02040 | 30001 ft | 460 kts | 227° |
| 2026-05-07 20:05 | 34.73268 | -116.07676 | 29997 ft | 461 kts | 228° |
| 2026-05-07 20:05 | 34.68844 | -116.13314 | 30000 ft | 461 kts | 228° |
| 2026-05-07 20:06 | 34.64417 | -116.18947 | 29989 ft | 460 kts | 228° |
| 2026-05-07 20:06 | 34.60046 | -116.24493 | 29924 ft | 441 kts | 228° |
| 2026-05-07 20:07 | 34.57972 | -116.27119 | 29698 ft | 433 kts | 228° |
| 2026-05-07 20:07 | 34.55910 | -116.29730 | 29500 ft | 424 kts | 228° |
| 2026-05-07 20:07 | 34.53865 | -116.32321 | 29107 ft | 425 kts | 228° |
| 2026-05-07 20:07 | 34.51795 | -116.34942 | 28703 ft | 433 kts | 228° |
| 2026-05-07 20:08 | 34.49713 | -116.37574 | 28260 ft | 431 kts | 227° |
| 2026-05-07 20:08 | 34.47647 | -116.40184 | 27841 ft | 427 kts | 227° |
| 2026-05-07 20:08 | 34.45591 | -116.42779 | 27420 ft | 424 kts | 227° |
| 2026-05-07 20:08 | 34.43554 | -116.45347 | 27011 ft | 421 kts | 227° |
| 2026-05-07 20:09 | 34.41603 | -116.47928 | 26594 ft | 418 kts | 235° |
| 2026-05-07 20:09 | 34.40195 | -116.50972 | 26214 ft | 411 kts | 247° |
| 2026-05-07 20:09 | 34.38977 | -116.54086 | 25796 ft | 409 kts | 247° |
| 2026-05-07 20:10 | 34.36511 | -116.60268 | 24980 ft | 405 kts | 246° |
| 2026-05-07 20:10 | 34.35259 | -116.63320 | 24601 ft | 403 kts | 245° |
| 2026-05-07 20:10 | 34.34022 | -116.66315 | 24196 ft | 403 kts | 245° |
| 2026-05-07 20:10 | 34.32772 | -116.69350 | 23771 ft | 402 kts | 246° |
| 2026-05-07 20:11 | 34.31543 | -116.72393 | 23273 ft | 403 kts | 246° |
| 2026-05-07 20:11 | 34.30316 | -116.75454 | 22791 ft | 402 kts | 246° |
| 2026-05-07 20:11 | 34.29099 | -116.78493 | 22318 ft | 401 kts | 246° |
| 2026-05-07 20:11 | 34.27882 | -116.81524 | 21865 ft | 399 kts | 246° |
| 2026-05-07 20:12 | 34.26669 | -116.84539 | 21418 ft | 398 kts | 245° |
| 2026-05-07 20:12 | 34.25474 | -116.87503 | 20982 ft | 396 kts | 245° |
| 2026-05-07 20:12 | 34.24267 | -116.90493 | 20552 ft | 395 kts | 245° |
| 2026-05-07 20:12 | 34.23062 | -116.93477 | 20116 ft | 394 kts | 245° |
| 2026-05-07 20:13 | 34.21861 | -116.96446 | 19679 ft | 393 kts | 245° |
| 2026-05-07 20:13 | 34.20701 | -116.99434 | 19237 ft | 391 kts | 250° |
| 2026-05-07 20:13 | 34.19812 | -117.02533 | 18826 ft | 389 kts | 255° |
| 2026-05-07 20:13 | 34.19039 | -117.05662 | 18360 ft | 389 kts | 255° |
| 2026-05-07 20:14 | 34.18258 | -117.08786 | 17896 ft | 387 kts | 254° |
| 2026-05-07 20:14 | 34.17444 | -117.11884 | 17419 ft | 385 kts | 253° |
| 2026-05-07 20:14 | 34.16628 | -117.14905 | 17002 ft | 382 kts | 253° |
| 2026-05-07 20:14 | 34.15794 | -117.17945 | 16526 ft | 381 kts | 253° |
| 2026-05-07 20:15 | 34.14958 | -117.20975 | 16149 ft | 378 kts | 252° |
| 2026-05-07 20:15 | 34.14128 | -117.23979 | 15736 ft | 376 kts | 252° |
| 2026-05-07 20:15 | 34.13307 | -117.26958 | 15338 ft | 373 kts | 252° |
| 2026-05-07 20:15 | 34.12490 | -117.29920 | 14943 ft | 370 kts | 252° |
| 2026-05-07 20:16 | 34.11676 | -117.32873 | 14552 ft | 368 kts | 252° |
| 2026-05-07 20:16 | 34.10880 | -117.35753 | 14160 ft | 365 kts | 252° |
| 2026-05-07 20:16 | 34.10096 | -117.38662 | 13780 ft | 363 kts | 254° |
| 2026-05-07 20:16 | 34.09371 | -117.41565 | 13384 ft | 359 kts | 255° |
| 2026-05-07 20:17 | 34.08666 | -117.44435 | 13027 ft | 355 kts | 255° |
| 2026-05-07 20:17 | 34.07960 | -117.47279 | 12683 ft | 351 kts | 255° |
| 2026-05-07 20:17 | 34.07496 | -117.49137 | 12457 ft | 348 kts | 254° |
| 2026-05-07 20:17 | 34.06792 | -117.51927 | 12122 ft | 345 kts | 254° |
| 2026-05-07 20:18 | 34.06090 | -117.54673 | 11793 ft | 341 kts | 254° |
| 2026-05-07 20:18 | 34.05392 | -117.57396 | 11473 ft | 338 kts | 254° |
| 2026-05-07 20:18 | 34.04702 | -117.60091 | 11153 ft | 334 kts | 255° |
| 2026-05-07 20:18 | 34.04020 | -117.62755 | 10834 ft | 331 kts | 255° |
| 2026-05-07 20:19 | 34.03342 | -117.65403 | 10523 ft | 328 kts | 255° |
| 2026-05-07 20:19 | 34.02669 | -117.68026 | 10214 ft | 325 kts | 255° |
| 2026-05-07 20:19 | 34.02063 | -117.70646 | 9880 ft | 321 kts | 261° |
| 2026-05-07 20:19 | 34.01771 | -117.73212 | 9896 ft | 298 kts | 267° |
| 2026-05-07 20:20 | 34.01573 | -117.75608 | 9479 ft | 292 kts | 266° |
| 2026-05-07 20:20 | 34.01373 | -117.78070 | 8918 ft | 294 kts | 266° |
| 2026-05-07 20:20 | 34.01158 | -117.80510 | 8513 ft | 290 kts | 265° |
| 2026-05-07 20:20 | 34.00931 | -117.82899 | 8170 ft | 283 kts | 265° |
| 2026-05-07 20:21 | 34.00706 | -117.85229 | 7828 ft | 278 kts | 264° |
| 2026-05-07 20:21 | 34.00482 | -117.87531 | 7520 ft | 274 kts | 264° |
| 2026-05-07 20:21 | 34.00258 | -117.89810 | 7213 ft | 274 kts | 264° |
| 2026-05-07 20:21 | 34.00035 | -117.92094 | 6896 ft | 274 kts | 264° |
| 2026-05-07 20:22 | 33.99812 | -117.94378 | 6598 ft | 274 kts | 264° |
| 2026-05-07 20:22 | 33.99663 | -117.96641 | 6302 ft | 273 kts | 266° |
| 2026-05-07 20:22 | 33.99502 | -117.98917 | 5997 ft | 272 kts | 265° |
| 2026-05-07 20:22 | 33.99292 | -118.01191 | 5633 ft | 274 kts | 263° |
| 2026-05-07 20:23 | 33.99056 | -118.03459 | 5297 ft | 271 kts | 263° |
| 2026-05-07 20:23 | 33.98818 | -118.05694 | 4950 ft | 268 kts | 263° |
| 2026-05-07 20:23 | 33.98582 | -118.07907 | 4660 ft | 262 kts | 263° |
| 2026-05-07 20:23 | 33.98352 | -118.10066 | 4398 ft | 256 kts | 263° |
| 2026-05-07 20:24 | 33.98131 | -118.12158 | 4211 ft | 245 kts | 264° |
| 2026-05-07 20:24 | 33.97923 | -118.14128 | 4123 ft | 227 kts | 263° |
| 2026-05-07 20:24 | 33.97730 | -118.15966 | 3935 ft | 217 kts | 263° |
| 2026-05-07 20:24 | 33.97545 | -118.17733 | 3680 ft | 208 kts | 264° |
| 2026-05-07 20:25 | 33.97367 | -118.19433 | 3416 ft | 201 kts | 264° |
| 2026-05-07 20:25 | 33.97195 | -118.21076 | 3160 ft | 194 kts | 264° |
| 2026-05-07 20:25 | 33.97029 | -118.22663 | 2920 ft | 188 kts | 264° |
| 2026-05-07 20:25 | 33.96867 | -118.24214 | 2686 ft | 185 kts | 263° |
| 2026-05-07 20:26 | 33.96710 | -118.25727 | 2443 ft | 182 kts | 263° |
| 2026-05-07 20:26 | 33.96557 | -118.27187 | 2218 ft | 169 kts | 262° |
| 2026-05-07 20:26 | 33.96420 | -118.28513 | 2005 ft | 152 kts | 261° |
| 2026-05-07 20:26 | 33.96294 | -118.29728 | 1823 ft | 147 kts | 261° |
| 2026-05-07 20:27 | 33.96167 | -118.30950 | 1620 ft | 145 kts | 259° |
| 2026-05-07 20:27 | 33.96048 | -118.32149 | 1430 ft | 144 kts | 260° |
| 2026-05-07 20:27 | 33.95928 | -118.33341 | 1263 ft | 145 kts | 261° |
| 2026-05-07 20:27 | 33.95787 | -118.34567 | 1064 ft | 147 kts | 262° |
| 2026-05-07 20:28 | 33.95659 | -118.35784 | 881 ft | 146 kts | 263° |
| 2026-05-07 20:28 | 33.95546 | -118.36984 | 680 ft | 142 kts | 262° |
| 2026-05-07 20:28 | 33.95418 | -118.38165 | 465 ft | 143 kts | 262° |
| 2026-05-07 20:28 | 33.95304 | -118.39337 | 289 ft | 141 kts | 262° |
| 2026-05-07 20:29 | 33.95181 | -118.40499 | 110 ft | 139 kts | 262° |
| 2026-05-07 20:29 | 33.95074 | -118.41534 | 93 ft | 99 kts | 263° |
| 2026-05-07 20:29 | 33.95016 | -118.42095 | 95 ft | 42 kts | 262° |
| 2026-05-07 20:29 | 33.94948 | -118.42356 | 95 ft | 30 kts | 237° |
| 2026-05-07 20:30 | 33.94827 | -118.42480 | 98 ft | 19 kts | 195° |
| 2026-05-07 20:30 | 33.94710 | -118.42477 | 96 ft | 16 kts | 168° |
| 2026-05-07 20:30 | 33.94668 | -118.42383 | 94 ft | 16 kts | 84° |
| 2026-05-07 20:30 | 33.94680 | -118.42261 | 93 ft | 16 kts | 83° |
| 2026-05-07 20:31 | 33.94694 | -118.42125 | 94 ft | 19 kts | 83° |
| 2026-05-07 20:31 | 33.94710 | -118.41963 | 92 ft | 21 kts | 83° |
| 2026-05-07 20:31 | 33.94728 | -118.41780 | 92 ft | 22 kts | 83° |
| 2026-05-07 20:31 | 33.94746 | -118.41600 | 95 ft | 21 kts | 83° |
| 2026-05-07 20:32 | 33.94768 | -118.41425 | 93 ft | 21 kts | 75° |
| 2026-05-07 20:32 | 33.94796 | -118.41258 | 93 ft | 20 kts | 84° |
| 2026-05-07 20:32 | 33.94812 | -118.41093 | 94 ft | 20 kts | 83° |
| 2026-05-07 20:32 | 33.94828 | -118.40935 | 95 ft | 19 kts | 83° |
| 2026-05-07 20:33 | 33.94844 | -118.40781 | 93 ft | 18 kts | 83° |
| 2026-05-07 20:33 | 33.94859 | -118.40632 | 93 ft | 18 kts | 82° |
| 2026-05-07 20:33 | 33.94875 | -118.40488 | 95 ft | 17 kts | 83° |
| 2026-05-07 20:33 | 33.94887 | -118.40364 | 93 ft | 5 kts | 86° |
| 2026-05-07 20:34 | 33.94884 | -118.40324 | 93 ft | 6 kts | 105° |
| 2026-05-07 20:34 | 33.94850 | -118.40268 | 94 ft | 13 kts | 134° |
| 2026-05-07 20:34 | 33.94815 | -118.40198 | 93 ft | 7 kts | 139° |
| 2026-05-07 20:34 | 33.94793 | -118.40179 | 92 ft | 2 kts | 149° |
| 2026-05-07 20:35 | 33.94783 | -118.40171 | 92 ft | 0 kts | 144° |